Time;durP1;ratioP1;P1;durP2;ratioP2;P2;SDS_P1;SDS_P2;PMS_P1;PMS_P2;Temp;Humidity;BMP_temperature;BMP_pressure;BME280_temperature;BME280_humidity;BME280_pressure;Samples;Min_cycle;Max_cycle;Signal;HPM_P1;HPM_P2
2022/07/29 10:29:11;;;;;;;4.40;3.30;;;;;;;24.25;63.62;95454.38;5135939;27;1233034;-78
2022/07/29 10:31:49;;;;;;;5.18;3.38;;;;;;;24.29;65.01;95455.19;5152498;27;20038;-78
2022/07/29 10:34:36;;;;;;;3.90;2.45;;;;;;;24.20;65.42;95446.59;5136257;27;20417;-76
2022/07/29 10:37:25;;;;;;;5.25;3.10;;;;;;;24.08;64.27;95447.56;5141709;27;20039;-76
2022/07/29 10:43:37;;;;;;;7.35;3.20;;;;;;;23.96;64.63;95448.50;5041891;28;20046;-77
2022/07/29 10:46:04;;;;;;;7.15;3.25;;;;;;;24.00;66.02;95449.34;5020435;28;20462;-77
2022/07/29 10:48:30;;;;;;;6.05;2.92;;;;;;;24.17;65.38;95452.69;5101417;27;20074;-77
2022/07/29 10:51:04;;;;;;;4.43;2.95;;;;;;;24.45;65.07;95446.22;5139652;27;20509;-77
2022/07/29 10:53:49;;;;;;;4.78;3.13;;;;;;;24.23;62.75;95445.13;5139022;27;20042;-77
2022/07/29 10:56:29;;;;;;;4.22;2.95;;;;;;;24.59;62.11;95441.06;5145319;27;20104;-77
2022/07/29 10:59:20;;;;;;;7.68;3.40;;;;;;;25.30;59.07;95445.91;5141152;27;20047;-77
2022/07/29 11:01:47;;;;;;;6.50;3.85;;;;;;;25.85;59.19;95447.31;5140469;27;20107;-77
2022/07/29 11:04:12;;;;;;;7.25;3.38;;;;;;;26.32;56.73;95437.75;5138298;27;20043;-77
2022/07/29 11:07:07;;;;;;;4.35;3.30;;;;;;;26.23;57.26;95439.97;5147542;27;20060;-77
2022/07/29 11:09:33;;;;;;;5.20;3.20;;;;;;;26.25;56.19;95435.00;5120719;27;20039;-77
2022/07/29 11:11:59;;;;;;;4.22;3.03;;;;;;;26.81;55.72;95441.19;5139286;27;20035;-77
2022/07/29 11:14:57;;;;;;;5.40;3.22;;;;;;;27.60;54.33;95440.81;5145811;27;20059;-77
2022/07/29 11:17:23;;;;;;;10.07;3.33;;;;;;;27.83;51.53;95433.13;5127281;27;20047;-78
2022/07/29 11:19:48;;;;;;;4.75;3.20;;;;;;;27.34;52.22;95436.44;5143765;27;20035;-77
2022/07/29 11:22:33;;;;;;;5.07;3.30;;;;;;;27.54;50.84;95436.91;5147169;27;20042;-78
2022/07/29 11:25:16;;;;;;;6.05;3.47;;;;;;;27.91;52.89;95433.16;5142087;27;20091;-78
2022/07/29 11:27:43;;;;;;;5.43;3.28;;;;;;;28.35;48.15;95423.94;5141686;27;20122;-77
2022/07/29 11:30:11;;;;;;;5.20;3.00;;;;;;;28.98;47.15;95420.78;5143937;27;20087;-78
2022/07/29 11:32:43;;;;;;;7.00;3.00;;;;;;;29.04;46.70;95424.63;5144103;27;20118;-78
2022/07/29 11:35:23;;;;;;;4.40;3.10;;;;;;;28.98;45.47;95415.38;5129178;27;20039;-77
2022/07/29 11:38:23;;;;;;;6.32;3.10;;;;;;;28.52;45.18;95412.31;5145008;27;20051;-78
2022/07/29 11:41:26;;;;;;;4.50;3.10;;;;;;;29.24;40.89;95405.22;5120545;27;20042;-78
2022/07/29 11:44:00;;;;;;;5.70;3.00;;;;;;;29.28;42.43;95401.34;5125485;27;20093;-78
2022/07/29 11:46:48;;;;;;;7.65;3.03;;;;;;;28.93;42.57;95407.63;5121908;27;20072;-78
2022/07/29 11:49:20;;;;;;;6.57;3.10;;;;;;;28.92;43.05;95406.09;5123362;27;20040;-78
2022/07/29 11:51:53;;;;;;;5.90;3.35;;;;;;;28.35;44.57;95407.72;5126609;27;20145;-78
2022/07/29 11:54:47;;;;;;;7.00;3.15;;;;;;;28.47;44.06;95401.88;5127598;27;20558;-77
2022/07/29 11:57:14;;;;;;;5.60;3.10;;;;;;;28.51;44.86;95399.19;5123458;27;20055;-77
2022/07/29 11:59:41;;;;;;;7.18;3.40;;;;;;;28.33;44.40;95399.19;5126027;27;20047;-78
2022/07/29 12:02:08;;;;;;;6.70;3.10;;;;;;;28.48;45.29;95406.16;5110331;27;20043;-77
2022/07/29 12:04:34;;;;;;;5.32;3.10;;;;;;;27.79;44.21;95405.31;5129143;27;20504;-77
2022/07/29 12:07:00;;;;;;;4.40;3.13;;;;;;;27.70;43.43;95391.41;5119066;27;20032;-77
2022/07/29 12:09:26;;;;;;;5.63;3.15;;;;;;;28.46;43.75;95392.25;5118389;27;20084;-78
2022/07/29 12:11:59;;;;;;;11.00;3.13;;;;;;;28.61;42.43;95392.22;5123461;27;20408;-78
2022/07/29 12:14:29;;;;;;;5.18;3.20;;;;;;;28.11;44.71;95380.25;5114788;27;20043;-78
2022/07/29 12:16:55;;;;;;;5.55;3.00;;;;;;;28.35;44.58;95383.34;5133306;27;20039;-78
2022/07/29 12:19:21;;;;;;;6.65;3.25;;;;;;;28.34;42.45;95373.69;5118189;27;20055;-78
2022/07/29 12:21:50;;;;;;;5.20;3.10;;;;;;;27.92;42.19;95383.31;5130130;27;20044;-78
2022/07/29 12:24:16;;;;;;;7.40;3.28;;;;;;;27.83;43.39;95394.53;5132865;27;20906;-78
2022/07/29 12:26:56;;;;;;;4.53;2.90;;;;;;;27.77;43.52;95391.44;5109572;27;20064;-78
2022/07/29 12:29:22;;;;;;;6.57;3.20;;;;;;;27.96;45.32;95386.81;5128952;27;20035;-78
2022/07/29 12:31:53;;;;;;;5.55;3.05;;;;;;;27.88;41.82;95377.91;5104567;27;20045;-78
2022/07/29 12:34:21;;;;;;;4.95;3.20;;;;;;;27.74;44.11;95381.38;5126089;27;20099;-78
2022/07/29 12:36:48;;;;;;;9.15;3.05;;;;;;;27.74;44.13;95386.78;5118612;27;20106;-78
2022/07/29 12:39:15;;;;;;;5.90;3.13;;;;;;;27.48;43.44;95380.56;5132426;27;20091;-78
2022/07/29 12:41:41;;;;;;;8.52;3.60;;;;;;;27.61;44.94;95382.88;5113168;27;20043;-78
2022/07/29 12:44:10;;;;;;;6.32;3.60;;;;;;;27.81;44.07;95370.56;5123776;27;20040;-77
2022/07/29 12:46:35;;;;;;;8.43;3.50;;;;;;;28.09;45.06;95369.06;5128616;27;20047;-78
2022/07/29 12:49:01;;;;;;;9.30;3.60;;;;;;;28.41;44.10;95362.84;5130944;27;20043;-77
2022/07/29 12:51:40;;;;;;;5.35;3.50;;;;;;;28.43;44.00;95365.94;5120738;27;20039;-78
2022/07/29 12:54:08;;;;;;;6.38;3.40;;;;;;;27.88;43.17;95369.03;5130481;27;20586;-78
2022/07/29 12:56:34;;;;;;;6.38;3.33;;;;;;;27.76;43.73;95370.19;5114590;27;20047;-78
2022/07/29 12:58:59;;;;;;;7.10;3.58;;;;;;;27.82;45.54;95382.91;5129244;27;20114;-78
2022/07/29 13:01:27;;;;;;;5.30;3.40;;;;;;;27.64;44.55;95379.41;5101531;28;20055;-77
2022/07/29 13:04:03;;;;;;;6.03;3.80;;;;;;;27.43;46.35;95389.03;5117388;27;20055;-78
2022/07/29 13:06:41;;;;;;;8.50;3.67;;;;;;;27.38;46.36;95386.69;5114927;27;20043;-78
2022/07/29 13:09:08;;;;;;;7.10;3.53;;;;;;;27.10;47.17;95388.09;5113053;27;20446;-78
2022/07/29 13:11:35;;;;;;;6.05;3.72;;;;;;;26.84;48.62;95391.06;5121910;27;20091;-77
2022/07/29 13:14:01;;;;;;;8.00;4.20;;;;;;;26.92;48.55;95387.25;5110169;28;20051;-77
2022/07/29 13:16:27;;;;;;;5.88;3.75;;;;;;;26.57;49.71;95393.97;5118707;27;20070;-77
2022/07/29 13:19:07;;;;;;;7.85;3.90;;;;;;;26.49;50.80;95381.59;5129233;27;20039;-78
2022/07/29 13:21:33;;;;;;;5.32;3.80;;;;;;;26.54;50.48;95373.16;5128140;27;20095;-77
2022/07/29 13:23:59;;;;;;;6.38;4.25;;;;;;;26.36;50.02;95383.81;5104122;27;20446;-78
2022/07/29 13:26:25;;;;;;;6.90;3.95;;;;;;;26.43;51.30;95381.94;5105411;27;20047;-78
2022/07/29 13:28:50;;;;;;;5.15;3.95;;;;;;;26.08;51.63;95375.13;5102836;27;20431;-78
2022/07/29 13:31:16;;;;;;;6.78;3.88;;;;;;;25.76;50.71;95378.28;5122418;27;20458;-77
2022/07/29 13:33:41;;;;;;;5.82;4.07;;;;;;;25.77;51.29;95382.56;5125336;27;20046;-77
2022/07/29 13:36:07;;;;;;;6.70;4.18;;;;;;;25.67;50.69;95367.03;5124100;27;20497;-78
2022/07/29 13:38:33;;;;;;;6.72;3.95;;;;;;;25.52;51.79;95381.53;5105006;27;20493;-78
2022/07/29 13:40:59;;;;;;;7.20;3.95;;;;;;;25.40;53.56;95388.72;5124051;27;20043;-77
2022/07/29 13:43:24;;;;;;;6.00;3.85;;;;;;;25.32;54.12;95389.78;5129244;27;20297;-77
2022/07/29 13:45:50;;;;;;;7.20;4.78;;;;;;;25.31;58.47;95385.53;5125687;27;20067;-78
2022/07/29 13:48:15;;;;;;;9.60;4.43;;;;;;;25.15;55.72;95379.53;5127264;27;20043;-79
2022/07/29 13:50:40;;;;;;;7.43;4.70;;;;;;;25.04;55.38;95374.81;5125797;27;20106;-78
2022/07/29 13:53:06;;;;;;;7.93;5.15;;;;;;;25.01;57.21;95375.56;5122864;27;20496;-77
2022/07/29 13:55:31;;;;;;;7.07;4.68;;;;;;;25.03;56.72;95365.19;5128217;27;20031;-78
2022/07/29 13:57:57;;;;;;;6.40;4.50;;;;;;;25.28;56.98;95369.31;5107328;27;20411;-81
2022/07/29 14:00:23;;;;;;;8.80;4.85;;;;;;;25.58;57.52;95374.66;5103242;27;20103;-78
2022/07/29 14:02:49;;;;;;;9.02;5.10;;;;;;;25.66;56.62;95370.88;5119059;27;20043;-77
2022/07/29 14:05:14;;;;;;;7.05;4.90;;;;;;;25.80;55.44;95364.06;5104705;27;20511;-75
2022/07/29 14:07:40;;;;;;;7.35;4.78;;;;;;;25.68;55.57;95357.81;5126277;27;20114;-77
2022/07/29 14:10:06;;;;;;;8.55;4.97;;;;;;;25.80;54.66;95358.69;5121590;27;20058;-77
2022/07/29 14:12:32;;;;;;;10.30;5.40;;;;;;;25.79;55.33;95354.44;5123204;27;20042;-77
2022/07/29 14:14:57;;;;;;;8.80;5.10;;;;;;;25.81;56.52;95354.84;5123957;27;20035;-77
2022/07/29 14:17:23;;;;;;;7.82;4.95;;;;;;;26.03;56.04;95345.81;5121434;27;20043;-77
2022/07/29 14:19:48;;;;;;;9.13;5.10;;;;;;;26.03;54.32;95345.81;5117394;27;20553;-78
2022/07/29 14:22:14;;;;;;;10.77;5.40;;;;;;;26.17;54.13;95349.78;5122349;27;20108;-78
2022/07/29 14:24:39;;;;;;;7.70;4.97;;;;;;;26.18;54.15;95345.94;5092864;28;20036;-76
2022/07/29 14:27:06;;;;;;;8.85;4.90;;;;;;;26.07;55.11;95346.59;5125002;28;20424;-79
2022/07/29 14:29:32;;;;;;;10.32;4.88;;;;;;;26.33;53.58;95350.25;5118335;28;20081;-77
2022/07/29 14:31:58;;;;;;;10.05;4.95;;;;;;;26.00;55.33;95351.94;5126138;28;20060;-76
2022/07/29 14:34:23;;;;;;;7.55;4.47;;;;;;;25.89;54.02;95351.84;5128284;28;20031;-76
2022/07/29 14:36:49;;;;;;;7.68;5.00;;;;;;;25.81;55.56;95354.84;5122655;28;20036;-76
2022/07/29 14:39:15;;;;;;;6.93;4.68;;;;;;;25.85;53.36;95344.88;5122739;28;20128;-76
2022/07/29 14:41:41;;;;;;;7.47;4.60;;;;;;;26.04;53.89;95352.75;5103903;28;20039;-77
2022/07/29 14:44:06;;;;;;;7.93;4.90;;;;;;;25.84;52.19;95343.31;5123085;28;20147;-77
2022/07/29 14:46:32;;;;;;;8.13;4.60;;;;;;;26.16;52.88;95348.22;5123342;28;20046;-77
2022/07/29 14:48:57;;;;;;;7.30;4.10;;;;;;;25.92;52.31;95353.03;5122160;28;20118;-76
2022/07/29 14:51:23;;;;;;;7.28;4.35;;;;;;;25.50;53.55;95359.56;5123769;28;20057;-82
2022/07/29 14:53:48;;;;;;;9.75;4.22;;;;;;;25.63;54.21;95360.84;5128080;28;20031;-84
2022/07/29 14:56:13;;;;;;;6.40;4.15;;;;;;;25.49;54.22;95360.72;5109731;28;20047;-85
2022/07/29 14:58:39;;;;;;;9.65;4.15;;;;;;;25.73;52.40;95367.47;5105235;28;20046;-79
2022/07/29 15:01:05;;;;;;;5.45;3.90;;;;;;;25.42;54.30;95367.56;5123246;28;20047;-77
2022/07/29 15:03:31;;;;;;;7.00;4.28;;;;;;;25.52;53.53;95376.13;5118830;28;20046;-79
2022/07/29 15:05:57;;;;;;;7.65;4.18;;;;;;;25.72;54.50;95374.78;5125309;28;20157;-79
2022/07/29 15:08:22;;;;;;;8.73;4.22;;;;;;;25.77;54.34;95371.78;5120841;28;20065;-76
2022/07/29 15:10:48;;;;;;;8.93;4.65;;;;;;;25.52;53.75;95376.13;5108137;28;20500;-77
2022/07/29 15:13:14;;;;;;;5.90;4.00;;;;;;;25.49;54.72;95382.25;5123529;27;20068;-77
2022/07/29 15:15:41;;;;;;;8.38;4.68;;;;;;;25.46;55.04;95374.91;5120723;27;20040;-77
2022/07/29 15:18:06;;;;;;;8.02;4.20;;;;;;;25.41;55.20;95366.03;5127021;27;20078;-77
2022/07/29 15:20:32;;;;;;;7.68;4.32;;;;;;;25.47;55.38;95373.75;5123132;27;20039;-77
2022/07/29 15:22:57;;;;;;;6.65;4.22;;;;;;;25.38;53.97;95365.97;5118980;27;20040;-77
2022/07/29 15:25:24;;;;;;;9.63;4.45;;;;;;;25.21;56.90;95368.09;5133539;27;20039;-77
2022/07/29 15:27:49;;;;;;;8.30;4.53;;;;;;;25.16;55.71;95359.56;5132951;27;20389;-77
2022/07/29 15:30:16;;;;;;;6.80;4.07;;;;;;;25.34;53.93;95360.56;5132393;27;20060;-76
2022/07/29 15:32:44;;;;;;;9.07;4.68;;;;;;;25.03;56.79;95357.09;5115818;27;20059;-76
2022/07/29 15:35:10;;;;;;;7.03;4.18;;;;;;;25.24;55.40;95361.97;5131390;27;20644;-77
2022/07/29 15:37:37;;;;;;;14.63;4.63;;;;;;;25.24;55.39;95366.56;5120560;27;20047;-76
2022/07/29 15:40:03;;;;;;;8.63;4.65;;;;;;;25.07;55.76;95368.69;5130664;27;20520;-77
2022/07/29 15:42:29;;;;;;;8.00;5.22;;;;;;;24.75;56.16;95372.91;5129963;27;20051;-77
2022/07/29 15:44:55;;;;;;;9.32;5.30;;;;;;;24.72;57.04;95367.13;5126232;27;20076;-78
2022/07/29 15:47:21;;;;;;;8.93;5.45;;;;;;;24.55;57.64;95367.59;5122274;27;20093;-79
2022/07/29 15:49:46;;;;;;;14.13;5.45;;;;;;;24.45;58.32;95376.28;5133600;27;20040;-79
2022/07/29 15:52:12;;;;;;;10.27;5.32;;;;;;;24.43;58.86;95383.97;5114095;27;20486;-78
2022/07/29 15:54:40;;;;;;;9.30;5.13;;;;;;;24.33;59.34;95391.50;5116031;27;20076;-77
2022/07/29 15:57:06;;;;;;;7.70;5.20;;;;;;;24.29;60.69;95401.41;5132491;27;20822;-76
2022/07/29 15:59:32;;;;;;;8.80;4.97;;;;;;;24.26;61.59;95402.13;5125569;27;20071;-76
2022/07/29 16:01:58;;;;;;;13.18;5.78;;;;;;;24.10;62.42;95404.97;5129390;27;20043;-76
2022/07/29 16:04:24;;;;;;;7.88;5.43;;;;;;;23.91;63.08;95403.13;5132577;27;20050;-77
2022/07/29 16:06:50;;;;;;;10.98;5.70;;;;;;;23.77;62.99;95408.97;5117995;27;20040;-76
2022/07/29 16:09:16;;;;;;;11.85;5.50;;;;;;;23.75;64.00;95400.50;5131089;27;20076;-77
2022/07/29 16:11:42;;;;;;;9.82;5.80;;;;;;;23.65;63.90;95401.09;5121078;27;20039;-76
2022/07/29 16:14:09;;;;;;;8.65;5.82;;;;;;;23.59;64.36;95392.56;5126998;27;20496;-76
2022/07/29 16:16:35;;;;;;;11.60;5.78;;;;;;;23.73;64.38;95399.31;5118384;27;20047;-76
2022/07/29 16:19:01;;;;;;;11.40;5.90;;;;;;;23.56;66.38;95398.66;5128524;27;20053;-76
2022/07/29 16:21:27;;;;;;;9.73;5.72;;;;;;;23.57;66.00;95400.19;5123044;27;20058;-76
2022/07/29 16:23:52;;;;;;;8.18;5.55;;;;;;;23.55;66.34;95397.09;5100454;27;20055;-77
2022/07/29 16:26:18;;;;;;;9.25;5.45;;;;;;;23.55;66.53;95401.66;5110684;27;20492;-77
2022/07/29 16:28:43;;;;;;;8.93;6.25;;;;;;;23.49;67.31;95403.88;5112685;27;20043;-77
2022/07/29 16:31:09;;;;;;;13.45;5.88;;;;;;;23.43;67.38;95405.28;5130748;27;20043;-76
2022/07/29 16:33:34;;;;;;;7.88;5.47;;;;;;;23.39;67.70;95405.22;5117926;27;20043;-77
2022/07/29 16:36:00;;;;;;;11.50;5.97;;;;;;;23.33;68.02;95418.16;5125694;27;20046;-77
2022/07/29 16:38:25;;;;;;;10.00;6.15;;;;;;;23.28;68.48;95421.13;5110189;27;20047;-77
2022/07/29 16:40:51;;;;;;;9.70;6.13;;;;;;;23.38;68.35;95429.75;5120382;27;20035;-76
2022/07/29 16:43:17;;;;;;;8.38;5.72;;;;;;;23.32;67.71;95432.72;5109089;27;20039;-77
2022/07/29 16:45:43;;;;;;;12.32;6.07;;;;;;;23.24;68.28;95431.00;5119498;27;20039;-77
2022/07/29 16:48:09;;;;;;;10.82;6.93;;;;;;;23.29;68.72;95433.41;5103460;28;20039;-77
2022/07/29 16:50:34;;;;;;;11.98;6.82;;;;;;;23.25;68.66;95437.16;5127221;27;20046;-78
2022/07/29 16:53:00;;;;;;;11.85;6.68;;;;;;;23.15;69.01;95443.88;5112327;27;20475;-80
2022/07/29 16:55:25;;;;;;;10.90;6.20;;;;;;;23.07;68.87;95442.13;5113136;27;20043;-79
2022/07/29 16:57:54;;;;;;;14.27;6.03;;;;;;;23.13;69.58;95451.47;5137284;27;20045;-78
2022/07/29 17:00:20;;;;;;;9.48;5.97;;;;;;;23.01;69.48;95455.84;5104988;28;20160;-77
2022/07/29 17:02:46;;;;;;;10.90;6.57;;;;;;;22.98;70.72;95456.50;5113258;27;20047;-78
2022/07/29 17:05:11;;;;;;;10.02;6.40;;;;;;;22.77;72.98;95466.78;5125108;27;20035;-78
2022/07/29 17:07:38;;;;;;;13.93;6.57;;;;;;;22.45;77.84;95474.88;5130983;27;20091;-77
2022/07/29 17:10:06;;;;;;;16.50;6.85;;;;;;;22.22;80.71;95475.44;5109776;27;20109;-78
2022/07/29 17:12:32;;;;;;;9.02;6.10;;;;;;;22.09;77.41;95471.28;5128435;27;20580;-77
2022/07/29 17:14:58;;;;;;;7.82;5.55;;;;;;;21.97;78.60;95478.25;5131009;27;20083;-77
2022/07/29 17:17:23;;;;;;;12.48;6.57;;;;;;;21.89;78.80;95484.53;5102277;27;20043;-77
2022/07/29 17:19:49;;;;;;;9.70;5.90;;;;;;;21.81;79.40;95488.19;5130125;27;20417;-77
2022/07/29 17:22:14;;;;;;;11.25;6.53;;;;;;;21.73;82.32;95494.47;5093127;27;20086;-79
2022/07/29 17:24:40;;;;;;;9.45;6.40;;;;;;;21.59;82.90;95498.31;5102344;27;20051;-78
2022/07/29 17:27:06;;;;;;;8.13;5.43;;;;;;;21.49;84.81;95501.41;5132519;27;20039;-79
2022/07/29 17:29:31;;;;;;;8.60;5.47;;;;;;;21.39;86.13;95501.91;5128127;27;20048;-78
2022/07/29 17:31:58;;;;;;;10.52;5.80;;;;;;;21.26;87.11;95509.19;5123446;27;20042;-77
2022/07/29 17:34:24;;;;;;;9.48;5.20;;;;;;;21.14;86.91;95504.63;5099528;28;20569;-77
2022/07/29 17:36:50;;;;;;;10.38;6.00;;;;;;;21.10;88.26;95525.16;5124750;27;20036;-78
2022/07/29 17:39:15;;;;;;;8.13;5.25;;;;;;;21.10;86.55;95525.16;5123527;27;20078;-77
2022/07/29 17:41:43;;;;;;;9.02;5.05;;;;;;;21.06;87.10;95524.25;5130154;27;20043;-77
2022/07/29 17:44:09;;;;;;;13.18;5.65;;;;;;;21.07;87.39;95536.53;5129122;27;20450;-79
2022/07/29 17:46:34;;;;;;;8.30;4.80;;;;;;;21.03;85.47;95527.59;5129820;27;20035;-79
2022/07/29 17:49:00;;;;;;;6.30;4.35;;;;;;;20.94;84.07;95533.09;5121361;27;20044;-81
2022/07/29 17:51:26;;;;;;;9.50;4.38;;;;;;;20.79;81.55;95537.22;5117675;27;20088;-84
2022/07/29 17:53:52;;;;;;;8.20;4.13;;;;;;;20.81;81.50;95548.34;5135774;27;20107;-80
2022/07/29 17:56:17;;;;;;;5.55;3.80;;;;;;;20.59;81.51;95544.97;5134174;27;20055;-78
2022/07/29 17:58:43;;;;;;;6.07;3.70;;;;;;;20.33;81.52;95552.47;5136052;27;20043;-82
2022/07/29 18:01:09;;;;;;;6.78;3.53;;;;;;;20.29;79.87;95559.63;5134882;27;20043;-85
2022/07/29 18:03:34;;;;;;;6.70;3.45;;;;;;;20.13;79.81;95554.91;5118103;27;20342;-81
2022/07/29 18:06:00;;;;;;;6.30;3.50;;;;;;;19.94;81.41;95557.28;5126608;27;20039;-79
2022/07/29 18:08:26;;;;;;;6.90;3.72;;;;;;;19.89;82.49;95561.69;5118927;27;20144;-81
2022/07/29 18:10:52;;;;;;;8.43;3.60;;;;;;;19.99;81.88;95554.41;5106402;27;20036;-81
2022/07/29 18:13:18;;;;;;;5.65;3.60;;;;;;;19.86;81.79;95551.69;5121784;27;20110;-78
2022/07/29 18:15:44;;;;;;;7.88;3.45;;;;;;;19.85;81.97;95555.44;5123630;27;20084;-77
2022/07/29 18:18:10;;;;;;;4.05;2.67;;;;;;;19.80;82.08;95557.56;5126614;27;20123;-77
2022/07/29 18:20:36;;;;;;;6.70;3.10;;;;;;;19.66;83.40;95557.81;5128710;27;20083;-76
2022/07/29 18:23:02;;;;;;;5.22;2.92;;;;;;;19.63;84.64;95561.13;5113074;27;20039;-77
2022/07/29 18:25:28;;;;;;;8.77;3.20;;;;;;;19.62;85.23;95551.53;5103468;28;20050;-77
2022/07/29 18:27:54;;;;;;;5.63;3.40;;;;;;;19.42;86.06;95553.88;5105730;28;20067;-78
2022/07/29 18:30:19;;;;;;;5.10;2.95;;;;;;;19.44;85.22;95554.34;5110747;28;20051;-78
2022/07/29 18:32:45;;;;;;;6.15;3.10;;;;;;;19.30;86.38;95551.91;5104414;28;20742;-79
2022/07/29 18:35:11;;;;;;;8.68;2.90;;;;;;;19.34;87.24;95557.41;5124682;28;20060;-77
2022/07/29 18:37:37;;;;;;;5.72;2.88;;;;;;;19.19;88.50;95556.88;5122541;28;20043;-77
2022/07/29 18:40:03;;;;;;;5.65;2.80;;;;;;;19.08;88.39;95549.53;5125026;28;20043;-78
2022/07/29 18:42:29;;;;;;;4.00;2.92;;;;;;;18.95;89.01;95562.81;5121103;28;20051;-78
2022/07/29 18:44:54;;;;;;;7.03;2.60;;;;;;;18.87;89.90;95561.72;5106640;28;20035;-78
2022/07/29 18:47:20;;;;;;;5.60;2.75;;;;;;;18.67;92.19;95565.09;5124717;28;20054;-78
2022/07/29 18:49:45;;;;;;;4.20;2.55;;;;;;;18.66;94.75;95576.84;5110773;27;20122;-78
2022/07/29 18:52:11;;;;;;;4.75;2.70;;;;;;;18.65;95.60;95588.63;5116205;27;20408;-79
2022/07/29 18:54:37;;;;;;;5.00;2.97;;;;;;;18.51;98.63;95570.94;5132704;27;20047;-79
2022/07/29 18:57:02;;;;;;;6.10;2.65;;;;;;;18.61;100.00;95587.69;5127303;27;20039;-79
2022/07/29 18:59:29;;;;;;;3.65;2.58;;;;;;;18.41;99.15;95589.94;5108395;27;20043;-78
2022/07/29 19:01:55;;;;;;;5.43;2.88;;;;;;;18.38;100.00;95593.22;5125421;27;20036;-79
2022/07/29 19:04:21;;;;;;;5.47;2.70;;;;;;;18.26;100.00;95595.75;5100400;28;20048;-78
2022/07/29 19:06:47;;;;;;;5.95;2.60;;;;;;;18.14;100.00;95605.16;5111537;27;20047;-79
2022/07/29 19:09:12;;;;;;;4.75;2.97;;;;;;;18.12;100.00;95612.69;5104831;27;20046;-78
2022/07/29 19:11:38;;;;;;;4.68;2.60;;;;;;;17.98;100.00;95612.09;5125385;27;20039;-82
2022/07/29 19:14:04;;;;;;;4.28;2.60;;;;;;;17.79;100.00;95610.47;5124187;27;20104;-79
2022/07/29 19:16:30;;;;;;;3.40;2.50;;;;;;;17.77;100.00;95618.00;5124915;27;20668;-78
2022/07/29 19:19:05;;;;;;;4.43;2.72;;;;;;;17.70;100.00;95628.34;5126689;27;20106;-76
2022/07/29 19:21:30;;;;;;;3.60;2.42;;;;;;;17.55;100.00;95626.13;5124671;27;20112;-77
2022/07/29 19:23:56;;;;;;;3.97;2.70;;;;;;;17.43;100.00;95635.50;5122316;27;20492;-76
2022/07/29 19:26:21;;;;;;;4.18;3.00;;;;;;;17.41;100.00;95637.69;5129730;27;20378;-77
2022/07/29 19:28:47;;;;;;;6.32;3.55;;;;;;;17.26;100.00;95630.13;5131462;27;20125;-77
2022/07/29 19:31:13;;;;;;;4.63;3.13;;;;;;;17.18;100.00;95633.53;5106097;27;20464;-78
2022/07/29 19:33:38;;;;;;;6.03;3.20;;;;;;;17.13;100.00;95637.13;5123591;27;20644;-77
2022/07/29 19:36:04;;;;;;;6.85;3.20;;;;;;;17.01;100.00;95640.38;5109491;27;20103;-77
2022/07/29 19:38:30;;;;;;;5.95;3.10;;;;;;;16.89;100.00;95637.50;5129681;27;20122;-77
2022/07/29 19:40:56;;;;;;;4.50;3.10;;;;;;;16.85;100.00;95641.84;5125455;27;20144;-78
2022/07/29 19:43:22;;;;;;;5.10;3.03;;;;;;;16.83;100.00;95644.03;5114306;27;20039;-77
2022/07/29 19:45:47;;;;;;;9.13;3.97;;;;;;;16.82;100.00;95642.44;5123203;27;20070;-77
2022/07/29 19:48:13;;;;;;;4.43;2.97;;;;;;;16.73;100.00;95640.53;5108116;27;20063;-77
2022/07/29 19:50:38;;;;;;;5.38;3.10;;;;;;;16.66;100.00;95650.81;5108239;27;20031;-77
2022/07/29 19:53:04;;;;;;;4.38;2.92;;;;;;;16.62;100.00;95644.53;5115749;27;20082;-77
2022/07/29 19:55:29;;;;;;;5.70;3.28;;;;;;;16.63;100.00;95651.41;5124149;27;20047;-77
2022/07/29 19:57:57;;;;;;;5.53;3.00;;;;;;;16.61;100.00;95637.66;5108735;27;20999;-76
2022/07/29 20:00:23;;;;;;;5.35;3.22;;;;;;;16.57;100.00;95647.31;5127749;27;20787;-76
2022/07/29 20:02:50;;;;;;;4.95;3.10;;;;;;;16.52;100.00;95639.47;5117549;27;20135;-77
2022/07/29 20:05:16;;;;;;;5.07;3.17;;;;;;;16.52;100.00;95644.78;5098907;27;20044;-77
2022/07/29 20:07:41;;;;;;;7.38;2.85;;;;;;;16.51;100.00;95648.56;5129904;27;20054;-77
2022/07/29 20:10:07;;;;;;;4.97;3.08;;;;;;;16.42;100.00;95651.94;5124446;27;20112;-77
2022/07/29 20:12:34;;;;;;;5.30;3.28;;;;;;;16.34;100.00;95644.69;5128950;27;20038;-76
2022/07/29 20:14:59;;;;;;;6.88;3.30;;;;;;;16.35;100.00;95651.56;5128234;27;20045;-77
2022/07/29 20:17:25;;;;;;;5.47;3.10;;;;;;;16.37;100.00;95654.69;5120388;27;20436;-77
2022/07/29 20:19:51;;;;;;;4.20;3.25;;;;;;;16.32;100.00;95651.38;5112755;27;20046;-77
2022/07/29 20:22:19;;;;;;;4.57;2.83;;;;;;;16.30;100.00;95659.66;5112931;27;20043;-76
2022/07/29 20:24:44;;;;;;;5.03;3.05;;;;;;;16.26;100.00;95658.69;5112464;27;20416;-76
2022/07/29 20:27:10;;;;;;;4.45;2.50;;;;;;;16.16;100.00;95648.31;5131371;27;20109;-76
2022/07/29 20:29:36;;;;;;;4.22;2.67;;;;;;;16.20;100.00;95659.88;5124096;27;20104;-75
2022/07/29 20:32:03;;;;;;;4.13;2.78;;;;;;;16.18;100.00;95646.91;5127622;27;20492;-76
2022/07/29 20:34:29;;;;;;;4.30;2.80;;;;;;;16.10;100.00;95651.09;5099061;27;20035;-76
2022/07/29 20:36:55;;;;;;;3.95;2.90;;;;;;;16.05;100.00;95653.84;5120100;27;20036;-76
2022/07/29 20:39:21;;;;;;;6.38;2.72;;;;;;;16.08;100.00;95650.59;5130538;27;20099;-76
2022/07/29 20:41:47;;;;;;;4.55;2.88;;;;;;;16.05;100.00;95653.06;5103410;27;20477;-76
2022/07/29 20:44:13;;;;;;;4.35;2.70;;;;;;;16.06;100.00;95655.44;5112079;27;20039;-76
2022/07/29 20:46:39;;;;;;;4.97;3.15;;;;;;;16.00;100.00;95646.00;5116738;27;20066;-76
2022/07/29 20:49:05;;;;;;;5.22;2.90;;;;;;;16.06;100.00;95650.13;5103330;28;20044;-76
2022/07/29 20:51:31;;;;;;;5.72;3.38;;;;;;;16.04;100.00;95654.94;5126838;27;20561;-76
2022/07/29 20:53:56;;;;;;;4.15;2.88;;;;;;;16.00;100.00;95646.00;5105623;27;20054;-76
2022/07/29 20:56:22;;;;;;;4.75;3.03;;;;;;;15.96;100.00;95645.03;5104650;27;20053;-76
2022/07/29 20:58:48;;;;;;;4.35;2.80;;;;;;;15.97;100.00;95657.22;5121636;27;20681;-77
2022/07/29 21:01:13;;;;;;;5.28;3.28;;;;;;;15.97;100.00;95651.91;5126311;27;20489;-77
2022/07/29 21:03:39;;;;;;;4.78;3.35;;;;;;;15.92;100.00;95649.38;5129912;27;20039;-79
2022/07/29 21:06:04;;;;;;;4.80;3.22;;;;;;;15.94;100.00;95658.59;5102849;28;20040;-78
2022/07/29 21:08:30;;;;;;;4.78;3.25;;;;;;;15.90;100.00;95652.34;5121663;27;20390;-79
2022/07/29 21:10:56;;;;;;;5.95;3.20;;;;;;;15.86;100.00;95661.16;5103571;28;20044;-79
2022/07/29 21:13:22;;;;;;;7.18;3.90;;;;;;;15.77;100.00;95653.91;5119756;27;20520;-78
2022/07/29 21:15:51;;;;;;;5.65;3.85;;;;;;;15.80;100.00;95662.38;5102618;28;20042;-79
2022/07/29 21:18:29;;;;;;;5.35;3.50;;;;;;;15.79;100.00;95655.50;5122205;27;20101;-80
2022/07/29 21:20:57;;;;;;;5.18;3.53;;;;;;;15.87;100.00;95662.75;5125782;27;20084;-78
2022/07/29 21:23:24;;;;;;;7.00;3.70;;;;;;;15.86;100.00;95661.97;5124379;27;20618;-79
2022/07/29 21:25:50;;;;;;;8.40;4.05;;;;;;;15.82;100.00;95660.22;5101479;27;20047;-78
2022/07/29 21:28:25;;;;;;;5.72;3.53;;;;;;;15.81;100.00;95656.00;5123727;27;20539;-78
2022/07/29 21:31:05;;;;;;;8.07;4.20;;;;;;;15.75;100.00;95666.69;5126358;27;20580;-79
2022/07/29 21:33:32;;;;;;;11.23;4.20;;;;;;;15.70;100.00;95656.19;5117950;27;20039;-80
2022/07/29 21:35:59;;;;;;;8.35;4.70;;;;;;;15.71;100.00;95665.69;5119891;27;20038;-79
2022/07/29 21:38:25;;;;;;;6.00;3.92;;;;;;;15.71;100.00;95656.97;5105390;27;20035;-77
2022/07/29 21:40:51;;;;;;;7.10;4.35;;;;;;;15.75;100.00;95655.28;5121998;27;20039;-78
2022/07/29 21:43:17;;;;;;;8.43;4.70;;;;;;;15.75;100.00;95656.06;5127891;27;20035;-77
2022/07/29 21:45:48;;;;;;;6.95;4.28;;;;;;;15.74;100.00;95659.00;5131171;27;20515;-77
2022/07/29 21:48:15;;;;;;;6.95;4.03;;;;;;;15.71;100.00;95655.09;5105961;27;20035;-77
2022/07/29 21:50:41;;;;;;;8.30;4.63;;;;;;;15.69;100.00;95651.97;5122476;27;20046;-78
2022/07/29 21:53:07;;;;;;;6.45;4.53;;;;;;;15.61;100.00;95652.66;5105108;27;20051;-79
2022/07/29 21:55:32;;;;;;;5.47;4.05;;;;;;;15.63;100.00;95655.00;5124242;27;20107;-79
2022/07/29 21:57:58;;;;;;;5.82;4.05;;;;;;;15.59;100.00;95660.13;5106865;27;20180;-81
2022/07/29 22:00:27;;;;;;;4.38;3.17;;;;;;;15.59;100.00;95652.94;5122237;27;20036;-79
2022/07/29 22:02:53;;;;;;;6.05;4.28;;;;;;;15.56;100.00;95652.78;5118624;27;20075;-78